Time;durP1;ratioP1;P1;durP2;ratioP2;P2;SDS_P1;SDS_P2;PMS_P1;PMS_P2;Temp;Humidity;BMP_temperature;BMP_pressure;BME280_temperature;BME280_humidity;BME280_pressure;Samples;Min_cycle;Max_cycle;Signal;HPM_P1;HPM_P2
2023/03/09 00:00:57;;;;;;;37.45;16.80;;;2.10;99.90;;;;;;5043645;28;20044;-71
2023/03/09 00:03:22;;;;;;;36.47;16.10;;;2.20;99.90;;;;;;5043283;28;20120;-71
2023/03/09 00:05:59;;;;;;;35.22;16.08;;;2.20;99.90;;;;;;5043014;28;20029;-71
2023/03/09 00:08:28;;;;;;;39.35;16.77;;;2.20;99.90;;;;;;5042943;28;20068;-71
2023/03/09 00:10:53;;;;;;;38.50;17.23;;;2.10;99.90;;;;;;5042799;28;20077;-71
2023/03/09 00:13:21;;;;;;;38.58;17.42;;;2.10;99.90;;;;;;5042980;28;20041;-72
2023/03/09 00:15:50;;;;;;;39.53;17.38;;;2.10;99.90;;;;;;5042419;28;20558;-70
2023/03/09 00:18:19;;;;;;;35.70;16.73;;;2.10;99.90;;;;;;5042218;28;20084;-72
2023/03/09 00:20:45;;;;;;;39.92;16.98;;;2.10;99.90;;;;;;5042376;28;20056;-71
2023/03/09 00:23:11;;;;;;;37.08;16.05;;;2.10;99.90;;;;;;5041788;28;20044;-70
2023/03/09 00:25:37;;;;;;;37.15;16.80;;;2.10;99.90;;;;;;5042623;28;20112;-72
2023/03/09 00:28:03;;;;;;;37.72;16.38;;;2.10;99.90;;;;;;5042186;28;20065;-72
2023/03/09 00:30:28;;;;;;;35.72;16.13;;;2.00;99.90;;;;;;5042519;28;20029;-71
2023/03/09 00:32:54;;;;;;;39.28;16.63;;;2.00;99.90;;;;;;5041794;28;20033;-71
2023/03/09 00:35:22;;;;;;;37.10;15.90;;;2.00;99.90;;;;;;5042453;28;20060;-71
2023/03/09 00:37:48;;;;;;;37.78;16.70;;;2.00;99.90;;;;;;5042805;28;20121;-70
2023/03/09 00:40:14;;;;;;;38.60;15.88;;;2.00;99.90;;;;;;5041170;28;20065;-71
2023/03/09 00:42:45;;;;;;;33.30;15.35;;;2.00;99.90;;;;;;5041444;28;20030;-71
2023/03/09 00:45:12;;;;;;;34.33;15.20;;;2.00;99.90;;;;;;5041265;28;20549;-70
2023/03/09 00:47:38;;;;;;;34.00;14.80;;;2.00;99.90;;;;;;5041949;28;20033;-71
2023/03/09 00:50:06;;;;;;;34.83;16.17;;;2.00;99.90;;;;;;5042170;28;20025;-70
2023/03/09 00:52:34;;;;;;;31.52;14.90;;;2.00;99.90;;;;;;5040906;28;20093;-71
2023/03/09 00:55:00;;;;;;;32.65;14.35;;;2.00;99.90;;;;;;5041094;28;20048;-72
2023/03/09 00:57:26;;;;;;;35.83;15.38;;;2.00;99.90;;;;;;5042756;28;20474;-72
2023/03/09 00:59:52;;;;;;;32.08;14.85;;;2.00;99.90;;;;;;5042371;28;20372;-71
2023/03/09 01:02:19;;;;;;;32.90;15.13;;;2.00;99.90;;;;;;5042422;28;20038;-70
2023/03/09 01:04:45;;;;;;;36.58;16.42;;;2.00;99.90;;;;;;5041512;28;20037;-70
2023/03/09 01:07:14;;;;;;;32.45;14.18;;;2.00;99.90;;;;;;5041514;28;20041;-71
2023/03/09 01:09:40;;;;;;;33.33;14.82;;;2.00;99.90;;;;;;5041242;28;20069;-72
2023/03/09 01:12:07;;;;;;;35.75;14.88;;;2.00;99.90;;;;;;5041544;28;20025;-69
2023/03/09 01:14:33;;;;;;;33.88;15.02;;;2.00;99.90;;;;;;5040346;28;20037;-69
2023/03/09 01:16:59;;;;;;;32.45;14.15;;;2.00;99.90;;;;;;5041309;28;20014;-73
2023/03/09 01:19:25;;;;;;;30.00;13.90;;;2.00;99.90;;;;;;5040898;28;20037;-70
2023/03/09 01:21:50;;;;;;;32.05;13.90;;;1.90;99.90;;;;;;5041545;28;20120;-70
2023/03/09 01:24:16;;;;;;;33.65;14.48;;;2.00;99.90;;;;;;5040145;28;20136;-70
2023/03/09 01:26:41;;;;;;;30.95;13.73;;;2.00;99.90;;;;;;5041536;28;20040;-70
2023/03/09 01:29:07;;;;;;;28.80;13.38;;;2.00;99.90;;;;;;5041654;28;20028;-71
2023/03/09 01:31:33;;;;;;;32.40;14.23;;;1.90;99.90;;;;;;5039921;28;20026;-70
2023/03/09 01:33:58;;;;;;;32.20;13.93;;;1.90;99.90;;;;;;5040525;28;20062;-71
2023/03/09 01:36:24;;;;;;;31.27;12.98;;;1.90;99.90;;;;;;5040387;28;20093;-70
2023/03/09 01:38:49;;;;;;;29.25;13.68;;;1.90;99.90;;;;;;5040949;28;20022;-71
2023/03/09 01:41:17;;;;;;;35.28;12.75;;;1.90;99.90;;;;;;5041091;28;20033;-70
2023/03/09 01:43:44;;;;;;;27.63;12.98;;;1.90;99.90;;;;;;5040684;28;20067;-72
2023/03/09 01:46:23;;;;;;;30.35;13.10;;;1.90;99.90;;;;;;5040961;28;20080;-70
2023/03/09 01:48:54;;;;;;;31.98;13.80;;;1.90;99.90;;;;;;5039735;28;20574;-71
2023/03/09 01:51:21;;;;;;;30.33;12.98;;;1.90;99.90;;;;;;5040875;28;20029;-70
2023/03/09 01:53:48;;;;;;;28.85;13.25;;;2.00;99.90;;;;;;5039302;28;20033;-71
2023/03/09 01:56:17;;;;;;;29.83;13.38;;;1.90;99.90;;;;;;5040122;28;20032;-71
2023/03/09 01:58:43;;;;;;;30.48;13.35;;;1.90;99.90;;;;;;5040224;28;20021;-70
2023/03/09 02:01:10;;;;;;;28.38;13.27;;;1.90;99.90;;;;;;5040623;28;20351;-72
2023/03/09 02:03:40;;;;;;;28.85;12.48;;;1.90;99.90;;;;;;5040807;28;20071;-69
2023/03/09 02:06:15;;;;;;;33.25;13.23;;;1.90;99.90;;;;;;5040721;28;20080;-70
2023/03/09 02:09:15;;;;;;;32.25;13.23;;;1.90;99.90;;;;;;5040517;28;20047;-71
2023/03/09 02:11:42;;;;;;;30.73;12.90;;;1.90;99.90;;;;;;5040605;28;20542;-71
2023/03/09 02:14:08;;;;;;;28.17;13.02;;;2.00;99.90;;;;;;5039014;28;20025;-69
2023/03/09 02:16:34;;;;;;;33.50;13.25;;;1.90;99.90;;;;;;5039483;28;20029;-69
2023/03/09 02:19:00;;;;;;;31.23;13.50;;;2.00;99.90;;;;;;5039915;28;20029;-71
2023/03/09 02:21:42;;;;;;;26.00;12.18;;;2.00;99.90;;;;;;5041028;28;20044;-71
2023/03/09 02:24:14;;;;;;;29.90;13.13;;;2.00;99.90;;;;;;5039310;28;20087;-69
2023/03/09 02:26:51;;;;;;;34.53;12.85;;;2.00;99.90;;;;;;5038482;28;20045;-70
2023/03/09 02:29:17;;;;;;;25.67;12.48;;;2.00;99.90;;;;;;5038639;28;20017;-70
2023/03/09 02:31:43;;;;;;;35.72;12.57;;;2.00;99.90;;;;;;5039777;28;20034;-70
2023/03/09 02:34:09;;;;;;;26.95;12.60;;;1.90;99.90;;;;;;5039495;28;20029;-70
2023/03/09 02:36:35;;;;;;;29.17;12.55;;;1.90;99.90;;;;;;5036494;28;20030;-71
2023/03/09 02:39:09;;;;;;;24.83;12.05;;;1.90;99.90;;;;;;5039708;28;20453;-71
2023/03/09 02:41:35;;;;;;;30.05;13.52;;;1.90;99.90;;;;;;5039345;28;20017;-70
2023/03/09 02:44:01;;;;;;;27.27;12.50;;;1.90;99.90;;;;;;5039316;28;20045;-70
2023/03/09 02:46:27;;;;;;;31.80;13.20;;;1.90;99.90;;;;;;5039808;28;20032;-71
2023/03/09 02:48:52;;;;;;;26.23;12.77;;;1.90;99.90;;;;;;5039723;28;20087;-70
2023/03/09 02:51:18;;;;;;;28.80;12.80;;;1.80;99.90;;;;;;5039247;28;20034;-70
2023/03/09 02:53:43;;;;;;;28.17;12.98;;;1.80;99.90;;;;;;5037288;28;20093;-69
2023/03/09 02:56:09;;;;;;;31.98;14.32;;;1.80;99.90;;;;;;5039756;28;20025;-70
2023/03/09 02:58:35;;;;;;;28.17;13.18;;;1.80;99.90;;;;;;5038984;28;20045;-70
2023/03/09 03:01:01;;;;;;;31.30;13.35;;;1.80;99.90;;;;;;5039516;28;20034;-69
2023/03/09 03:03:26;;;;;;;29.80;12.13;;;1.70;99.90;;;;;;5039597;28;20041;-70
2023/03/09 03:05:52;;;;;;;30.67;12.82;;;1.70;99.90;;;;;;5038237;28;20060;-72
2023/03/09 03:08:18;;;;;;;31.65;13.02;;;1.70;99.90;;;;;;5041948;28;20037;-71
2023/03/09 03:10:43;;;;;;;27.75;12.43;;;1.80;99.90;;;;;;5043296;28;20030;-70
2023/03/09 03:13:09;;;;;;;28.55;12.48;;;1.70;99.90;;;;;;5043002;28;20026;-70
2023/03/09 03:15:34;;;;;;;29.42;13.20;;;1.70;99.90;;;;;;5041900;28;20166;-70
2023/03/09 03:18:00;;;;;;;36.38;13.55;;;1.70;99.90;;;;;;5043508;28;20061;-71
2023/03/09 03:20:26;;;;;;;27.80;12.35;;;1.60;99.90;;;;;;5041471;28;20021;-70
2023/03/09 03:22:52;;;;;;;28.42;12.98;;;1.60;99.90;;;;;;5042636;28;20052;-70
2023/03/09 03:25:18;;;;;;;31.73;12.25;;;1.60;99.90;;;;;;5043252;28;20061;-70
2023/03/09 03:27:44;;;;;;;28.27;13.05;;;1.60;99.90;;;;;;5042909;28;20052;-70
2023/03/09 03:30:11;;;;;;;33.72;13.88;;;1.60;99.90;;;;;;5042623;28;20463;-71
2023/03/09 03:32:36;;;;;;;31.13;13.07;;;1.50;99.90;;;;;;5041398;28;20029;-71
2023/03/09 03:35:02;;;;;;;30.13;14.05;;;1.50;99.90;;;;;;5041883;28;20025;-70
2023/03/09 03:37:29;;;;;;;30.38;13.77;;;1.50;99.90;;;;;;5042656;28;20077;-72
2023/03/09 03:39:55;;;;;;;32.88;14.75;;;1.40;99.90;;;;;;5042945;28;20025;-70
2023/03/09 03:42:20;;;;;;;28.02;13.55;;;1.50;99.90;;;;;;5041960;28;20060;-70
2023/03/09 03:44:46;;;;;;;28.45;13.43;;;1.50;99.90;;;;;;5041985;28;20048;-71
2023/03/09 03:47:12;;;;;;;28.77;13.55;;;1.50;99.90;;;;;;5041249;28;20052;-69
2023/03/09 03:49:37;;;;;;;33.20;14.70;;;1.50;99.90;;;;;;5042927;28;20029;-70
2023/03/09 03:52:03;;;;;;;32.50;13.95;;;1.40;99.90;;;;;;5042017;28;20029;-70
2023/03/09 03:54:29;;;;;;;32.13;12.93;;;1.40;99.90;;;;;;5043529;28;20452;-70
2023/03/09 03:56:54;;;;;;;32.83;14.50;;;1.50;99.90;;;;;;5043105;28;20021;-71
2023/03/09 03:59:20;;;;;;;36.53;13.65;;;1.50;99.90;;;;;;5044162;28;20112;-70
2023/03/09 04:01:45;;;;;;;35.97;14.95;;;1.50;99.90;;;;;;5044187;28;20029;-70
2023/03/09 04:04:11;;;;;;;33.30;14.02;;;1.50;99.90;;;;;;5043315;28;20080;-71
2023/03/09 04:06:37;;;;;;;33.70;14.25;;;1.50;99.90;;;;;;5043457;28;20060;-70
2023/03/09 04:09:04;;;;;;;29.48;14.05;;;1.50;99.90;;;;;;5042425;28;20470;-71
2023/03/09 04:11:30;;;;;;;35.78;13.88;;;1.50;99.90;;;;;;5041612;28;20039;-70
2023/03/09 04:13:55;;;;;;;31.15;14.55;;;1.50;99.90;;;;;;5042821;28;20045;-72
2023/03/09 04:16:21;;;;;;;30.63;13.82;;;1.50;99.90;;;;;;5043640;28;20095;-71
2023/03/09 04:18:47;;;;;;;30.85;13.70;;;1.50;99.90;;;;;;5043231;28;20132;-72
2023/03/09 04:21:12;;;;;;;32.58;14.18;;;1.50;99.90;;;;;;5043500;28;20030;-72
2023/03/09 04:23:38;;;;;;;31.50;14.10;;;1.50;99.90;;;;;;5042625;28;20037;-72
2023/03/09 04:26:05;;;;;;;36.75;14.65;;;1.50;99.90;;;;;;5042997;28;20025;-72
2023/03/09 04:28:30;;;;;;;33.40;14.18;;;1.50;99.90;;;;;;5041361;28;20454;-71
2023/03/09 04:30:56;;;;;;;30.77;13.43;;;1.50;99.90;;;;;;5042010;28;20025;-71
2023/03/09 04:33:22;;;;;;;35.47;14.80;;;1.50;99.90;;;;;;5043088;28;20025;-72
2023/03/09 04:35:47;;;;;;;33.83;13.80;;;1.50;99.90;;;;;;5041804;28;20091;-72
2023/03/09 04:38:14;;;;;;;31.88;14.57;;;1.50;99.90;;;;;;5043277;28;20044;-71
2023/03/09 04:40:39;;;;;;;36.80;15.18;;;1.50;99.90;;;;;;5042111;28;20482;-72
2023/03/09 04:43:06;;;;;;;33.17;14.73;;;1.50;99.90;;;;;;5041629;28;20097;-72
2023/03/09 04:45:32;;;;;;;32.03;13.90;;;1.50;99.90;;;;;;5042825;28;20021;-72
2023/03/09 04:47:57;;;;;;;31.85;14.65;;;1.50;99.90;;;;;;5043220;28;20028;-71
2023/03/09 04:50:23;;;;;;;32.72;14.18;;;1.50;99.90;;;;;;5041589;28;20025;-72
2023/03/09 04:52:49;;;;;;;34.50;14.80;;;1.50;99.90;;;;;;5041140;28;20025;-72
2023/03/09 04:55:16;;;;;;;32.50;14.68;;;1.40;99.90;;;;;;5042946;28;20013;-72
2023/03/09 04:57:42;;;;;;;34.95;15.80;;;1.40;99.90;;;;;;5042695;28;20029;-73
2023/03/09 05:00:10;;;;;;;37.85;15.20;;;1.40;99.90;;;;;;5041352;28;20033;-73
2023/03/09 05:02:39;;;;;;;32.38;15.15;;;1.40;99.90;;;;;;5042654;28;20045;-74
2023/03/09 05:05:06;;;;;;;33.03;14.63;;;1.40;99.90;;;;;;5040938;28;20025;-73
2023/03/09 05:07:32;;;;;;;35.42;15.38;;;1.40;99.90;;;;;;5057485;28;20022;-74
2023/03/09 05:09:57;;;;;;;31.00;14.43;;;1.40;99.90;;;;;;5040940;28;20032;-73
2023/03/09 05:12:23;;;;;;;33.17;14.35;;;1.40;99.90;;;;;;5041613;28;20033;-73
2023/03/09 05:14:48;;;;;;;33.78;14.75;;;1.40;99.90;;;;;;5042198;28;20113;-72
2023/03/09 05:17:14;;;;;;;37.67;15.10;;;1.40;99.90;;;;;;5040318;28;20033;-73
2023/03/09 05:19:40;;;;;;;34.85;15.38;;;1.40;99.90;;;;;;5042402;28;20036;-72
2023/03/09 05:22:06;;;;;;;32.13;14.63;;;1.40;99.90;;;;;;5042258;28;20033;-73
2023/03/09 05:24:31;;;;;;;36.78;16.13;;;1.40;99.90;;;;;;5041757;28;20033;-74
2023/03/09 05:26:57;;;;;;;33.92;15.02;;;1.40;99.90;;;;;;5041830;28;20052;-74
2023/03/09 05:29:23;;;;;;;37.20;14.98;;;1.40;99.90;;;;;;5042267;28;20104;-76
2023/03/09 05:31:48;;;;;;;38.92;15.70;;;1.40;99.90;;;;;;5039806;28;20037;-73
2023/03/09 05:34:14;;;;;;;36.28;15.13;;;1.40;99.90;;;;;;5041723;28;20095;-73
2023/03/09 05:36:39;;;;;;;31.25;14.20;;;1.40;99.90;;;;;;5040501;28;20036;-74
2023/03/09 05:39:05;;;;;;;39.65;15.48;;;1.40;99.90;;;;;;5040732;28;20440;-75
2023/03/09 05:41:31;;;;;;;33.75;15.52;;;1.40;99.90;;;;;;5040154;28;20025;-74
2023/03/09 05:44:00;;;;;;;38.83;16.33;;;1.40;99.90;;;;;;5040410;28;20132;-74
2023/03/09 05:46:25;;;;;;;35.53;15.88;;;1.40;99.90;;;;;;5041479;28;20063;-73
2023/03/09 05:48:51;;;;;;;34.38;15.48;;;1.40;99.90;;;;;;5041610;28;20057;-76
2023/03/09 05:51:17;;;;;;;35.45;15.55;;;1.40;99.90;;;;;;5041258;28;20056;-74
2023/03/09 05:53:42;;;;;;;35.78;15.80;;;1.40;99.90;;;;;;5039889;28;20072;-74
2023/03/09 05:56:08;;;;;;;33.88;15.27;;;1.40;99.90;;;;;;5039957;28;20035;-75
2023/03/09 05:58:34;;;;;;;35.72;16.80;;;1.40;99.90;;;;;;5041206;28;20026;-74
2023/03/09 06:01:01;;;;;;;34.47;16.77;;;1.40;99.90;;;;;;5041115;28;20040;-74
2023/03/09 06:03:27;;;;;;;42.65;16.73;;;1.40;99.90;;;;;;5040601;28;20037;-74
2023/03/09 06:06:04;;;;;;;35.58;16.35;;;1.40;99.90;;;;;;5041196;28;20034;-76
2023/03/09 06:08:31;;;;;;;42.38;17.48;;;1.50;99.90;;;;;;5040375;28;20101;-74
2023/03/09 06:10:58;;;;;;;35.80;17.55;;;1.40;99.90;;;;;;5039647;28;20064;-74
2023/03/09 06:13:24;;;;;;;36.22;16.77;;;1.40;99.90;;;;;;5041229;28;20021;-74
2023/03/09 06:15:49;;;;;;;36.30;17.35;;;1.40;99.90;;;;;;5041387;28;20063;-74
2023/03/09 06:18:16;;;;;;;37.92;16.73;;;1.40;99.90;;;;;;5040059;28;20550;-75
2023/03/09 06:20:41;;;;;;;35.42;16.88;;;1.40;99.90;;;;;;5040010;28;20041;-74
2023/03/09 06:23:07;;;;;;;39.60;17.27;;;1.40;99.90;;;;;;5039497;28;20418;-74
2023/03/09 06:25:33;;;;;;;34.75;17.35;;;1.40;99.90;;;;;;5037605;28;20029;-73
2023/03/09 06:27:58;;;;;;;34.40;16.15;;;1.40;99.90;;;;;;5039256;28;20049;-73
2023/03/09 06:30:26;;;;;;;36.03;15.93;;;1.40;99.90;;;;;;5041660;28;20026;-71
2023/03/09 06:32:52;;;;;;;37.88;16.02;;;1.40;99.90;;;;;;5040547;28;20026;-72
2023/03/09 06:35:18;;;;;;;35.08;15.18;;;1.40;99.90;;;;;;5040133;28;20033;-73
2023/03/09 06:37:45;;;;;;;32.13;15.85;;;1.40;99.90;;;;;;5039936;28;20029;-72
2023/03/09 06:40:12;;;;;;;37.65;17.15;;;1.40;99.90;;;;;;5039824;28;20029;-73
2023/03/09 06:42:39;;;;;;;34.10;16.10;;;1.40;99.90;;;;;;5042409;28;20036;-72
2023/03/09 06:45:05;;;;;;;33.67;15.27;;;1.50;99.90;;;;;;5043926;28;20025;-73
2023/03/09 06:47:30;;;;;;;29.77;15.10;;;1.50;99.90;;;;;;5043569;28;20029;-73
2023/03/09 06:49:56;;;;;;;33.58;15.85;;;1.50;99.90;;;;;;5045745;28;20025;-72
2023/03/09 06:52:22;;;;;;;32.00;15.20;;;1.50;99.90;;;;;;5043602;28;20029;-72
2023/03/09 06:54:48;;;;;;;35.53;15.93;;;1.50;99.90;;;;;;5043659;28;20065;-71
2023/03/09 06:57:17;;;;;;;31.08;15.07;;;1.60;99.90;;;;;;5044396;28;20025;-73
2023/03/09 06:59:43;;;;;;;33.30;16.10;;;1.60;99.90;;;;;;5041819;28;20064;-74
2023/03/09 07:02:13;;;;;;;34.28;14.40;;;1.60;99.90;;;;;;5038818;28;20037;-73
2023/03/09 07:04:40;;;;;;;33.42;14.75;;;1.70;99.90;;;;;;5038540;28;20033;-72
2023/03/09 07:07:06;;;;;;;35.10;15.05;;;1.70;99.90;;;;;;5057859;28;20029;-71
2023/03/09 07:09:32;;;;;;;34.33;14.50;;;1.80;99.90;;;;;;5039623;28;20045;-72
2023/03/09 07:11:58;;;;;;;35.50;14.73;;;1.80;99.90;;;;;;5044458;28;20029;-72
2023/03/09 07:14:25;;;;;;;35.30;15.77;;;1.80;99.90;;;;;;5059690;28;20052;-74
2023/03/09 07:16:55;;;;;;;33.03;15.25;;;1.90;99.90;;;;;;5044941;28;20079;-72
2023/03/09 07:19:21;;;;;;;36.80;15.60;;;1.90;99.90;;;;;;5044576;28;20033;-73
2023/03/09 07:21:47;;;;;;;32.08;14.40;;;1.90;99.90;;;;;;5059022;28;20037;-72
2023/03/09 07:24:13;;;;;;;31.90;14.68;;;1.90;99.90;;;;;;5044104;28;20109;-73
2023/03/09 07:26:38;;;;;;;28.33;14.20;;;1.90;99.90;;;;;;5042493;28;20060;-71
2023/03/09 07:29:04;;;;;;;31.20;15.00;;;2.00;99.90;;;;;;5043149;28;20022;-74
2023/03/09 07:31:30;;;;;;;30.23;14.95;;;2.00;99.90;;;;;;5044704;28;20032;-71
2023/03/09 07:33:56;;;;;;;33.47;14.73;;;2.00;99.90;;;;;;5042765;28;20018;-73
2023/03/09 07:36:22;;;;;;;30.63;14.73;;;2.00;99.90;;;;;;5043405;28;20029;-72
2023/03/09 07:38:47;;;;;;;29.15;14.57;;;2.10;99.90;;;;;;5043849;28;20354;-72
2023/03/09 07:41:14;;;;;;;32.65;14.63;;;2.00;99.90;;;;;;5044345;28;20119;-71
2023/03/09 07:43:43;;;;;;;31.95;13.55;;;2.10;99.90;;;;;;5044658;28;20033;-72
2023/03/09 07:46:11;;;;;;;29.45;14.30;;;2.10;99.90;;;;;;5043801;28;20093;-73
2023/03/09 07:48:40;;;;;;;30.23;14.25;;;2.10;99.90;;;;;;5058996;28;20018;-74
2023/03/09 07:51:06;;;;;;;27.08;13.45;;;2.30;99.90;;;;;;5043848;28;20022;-71
2023/03/09 07:53:37;;;;;;;26.85;13.00;;;2.40;99.90;;;;;;5037950;28;20038;-71
2023/03/09 07:56:03;;;;;;;26.92;13.32;;;2.40;99.90;;;;;;5042125;28;20029;-71
2023/03/09 07:58:38;;;;;;;28.65;13.52;;;2.50;99.90;;;;;;5039778;28;20029;-72
2023/03/09 08:01:06;;;;;;;28.30;12.65;;;2.50;99.90;;;;;;5042594;28;20052;-72
2023/03/09 08:03:32;;;;;;;25.90;12.52;;;2.60;99.90;;;;;;5041879;28;20072;-72
2023/03/09 08:06:00;;;;;;;24.35;12.57;;;2.70;99.90;;;;;;5041206;28;20037;-73
2023/03/09 08:08:26;;;;;;;24.13;12.15;;;2.70;99.90;;;;;;5038585;28;20037;-73
2023/03/09 08:10:52;;;;;;;23.45;12.23;;;2.80;99.90;;;;;;5042263;28;20046;-71
2023/03/09 08:13:19;;;;;;;25.45;12.63;;;2.90;99.90;;;;;;5043564;28;20033;-71
2023/03/09 08:15:45;;;;;;;20.50;11.45;;;3.10;99.90;;;;;;5043087;28;20025;-70
2023/03/09 08:18:11;;;;;;;28.08;12.00;;;3.20;99.90;;;;;;5043703;28;20024;-73
2023/03/09 08:20:37;;;;;;;24.35;12.10;;;3.40;99.90;;;;;;5041809;28;20048;-71
2023/03/09 08:23:03;;;;;;;23.17;11.77;;;3.50;99.90;;;;;;5043531;28;20474;-72
2023/03/09 08:25:29;;;;;;;19.75;10.63;;;3.70;99.90;;;;;;5043653;28;20052;-73
2023/03/09 08:27:55;;;;;;;20.02;10.82;;;3.90;99.90;;;;;;5043719;28;20049;-71
2023/03/09 08:30:21;;;;;;;17.15;9.88;;;4.10;99.90;;;;;;5043698;28;20112;-72
2023/03/09 08:32:52;;;;;;;17.95;10.35;;;4.40;99.90;;;;;;5040915;28;20052;-72
2023/03/09 08:35:19;;;;;;;20.92;10.18;;;4.40;99.90;;;;;;5058023;28;20044;-71
2023/03/09 08:37:45;;;;;;;19.02;9.15;;;4.40;99.90;;;;;;5042462;28;20021;-71
2023/03/09 08:40:11;;;;;;;19.65;9.93;;;4.30;99.90;;;;;;5043206;28;20171;-73
2023/03/09 08:42:37;;;;;;;19.13;9.93;;;4.20;99.90;;;;;;5042989;28;20036;-70
2023/03/09 08:45:03;;;;;;;21.52;9.77;;;4.30;99.90;;;;;;5043218;28;20037;-70
2023/03/09 08:47:29;;;;;;;21.15;9.50;;;4.40;99.90;;;;;;5040989;28;20089;-73
2023/03/09 08:49:55;;;;;;;17.20;8.90;;;4.60;99.90;;;;;;5041879;28;20052;-70
2023/03/09 08:52:20;;;;;;;15.55;8.82;;;4.80;99.90;;;;;;5040502;28;20039;-70
2023/03/09 08:54:47;;;;;;;17.30;8.93;;;5.10;99.90;;;;;;5041179;28;20033;-71
2023/03/09 08:57:12;;;;;;;15.35;8.45;;;5.10;99.90;;;;;;5042243;28;20079;-73
2023/03/09 08:59:38;;;;;;;18.05;8.23;;;5.10;99.90;;;;;;5040959;28;20056;-73
2023/03/09 09:02:05;;;;;;;13.48;7.82;;;5.20;99.90;;;;;;5042386;28;20052;-72
2023/03/09 09:04:30;;;;;;;14.07;8.02;;;5.20;99.90;;;;;;5040213;28;20486;-73
2023/03/09 09:06:56;;;;;;;14.85;7.72;;;5.00;99.90;;;;;;5042494;28;20021;-72
2023/03/09 09:09:22;;;;;;;13.93;7.65;;;4.90;99.90;;;;;;5042884;28;20033;-72
2023/03/09 09:11:47;;;;;;;13.07;7.10;;;4.80;99.90;;;;;;5040876;28;20030;-70
2023/03/09 09:14:15;;;;;;;14.88;7.90;;;4.70;99.90;;;;;;5041264;28;20967;-73
2023/03/09 09:16:40;;;;;;;15.70;7.00;;;4.60;99.90;;;;;;5034140;28;20121;-72
2023/03/09 09:19:07;;;;;;;12.18;6.40;;;4.50;99.90;;;;;;5039576;28;20127;-70
2023/03/09 09:21:33;;;;;;;11.60;6.72;;;4.60;99.90;;;;;;5042601;28;20028;-72
2023/03/09 09:23:58;;;;;;;11.82;6.57;;;4.50;99.90;;;;;;5042039;28;20042;-70
2023/03/09 09:26:24;;;;;;;11.68;6.15;;;4.40;99.90;;;;;;5040389;28;20052;-72
2023/03/09 09:28:50;;;;;;;12.55;6.68;;;4.40;99.90;;;;;;5040384;28;20029;-71
2023/03/09 09:31:19;;;;;;;12.98;6.22;;;4.40;99.90;;;;;;5042051;28;20051;-71
2023/03/09 09:33:46;;;;;;;9.70;5.18;;;4.50;99.90;;;;;;5037594;28;20055;-69
2023/03/09 09:36:16;;;;;;;11.40;5.88;;;4.50;99.90;;;;;;5039559;28;20048;-69
2023/03/09 09:38:42;;;;;;;10.50;5.85;;;4.60;99.90;;;;;;5040402;28;20017;-70
2023/03/09 09:41:17;;;;;;;13.75;6.32;;;4.50;99.90;;;;;;5037980;28;20115;-71
2023/03/09 09:43:44;;;;;;;12.65;5.78;;;4.40;99.90;;;;;;5037962;28;20041;-69
2023/03/09 09:46:15;;;;;;;12.88;6.22;;;4.40;99.90;;;;;;5035985;28;20022;-70
2023/03/09 09:48:43;;;;;;;11.77;6.28;;;4.30;99.90;;;;;;5039269;28;20041;-72
2023/03/09 09:51:33;;;;;;;15.30;7.28;;;4.20;99.90;;;;;;5034584;28;20395;-71
2023/03/09 09:54:02;;;;;;;14.23;6.95;;;4.20;99.90;;;;;;5037318;28;20041;-72
2023/03/09 09:56:46;;;;;;;13.30;7.35;;;4.20;99.90;;;;;;5038604;28;20615;-72
2023/03/09 09:59:37;;;;;;;13.50;6.82;;;4.20;99.90;;;;;;5038379;28;20105;-70
2023/03/09 10:02:08;;;;;;;16.70;7.30;;;4.20;99.90;;;;;;5037768;28;20733;-71
2023/03/09 10:05:03;;;;;;;17.13;6.93;;;4.20;99.90;;;;;;5040338;28;20379;-71
2023/03/09 10:07:30;;;;;;;15.23;7.20;;;4.20;99.90;;;;;;5031050;28;20042;-70
2023/03/09 10:10:01;;;;;;;14.60;6.80;;;4.20;99.90;;;;;;5040120;28;20387;-73
2023/03/09 10:12:27;;;;;;;12.43;6.78;;;4.20;99.90;;;;;;5040736;28;20026;-70
2023/03/09 10:15:05;;;;;;;14.88;7.60;;;4.10;99.90;;;;;;5039385;28;20037;-70
2023/03/09 10:17:39;;;;;;;15.60;7.95;;;4.10;99.90;;;;;;5040578;28;20025;-69
2023/03/09 10:20:14;;;;;;;15.60;7.45;;;4.10;99.90;;;;;;5039014;28;20117;-72
2023/03/09 10:22:41;;;;;;;15.73;7.28;;;4.00;99.90;;;;;;5036249;28;20033;-71
2023/03/09 10:25:16;;;;;;;12.63;7.03;;;4.00;99.90;;;;;;5038488;28;20037;-71
2023/03/09 10:27:47;;;;;;;15.07;7.55;;;4.00;99.90;;;;;;5041116;28;20084;-71
2023/03/09 10:30:30;;;;;;;14.98;7.43;;;4.10;99.90;;;;;;5041081;28;20018;-71
2023/03/09 10:33:08;;;;;;;13.82;7.32;;;4.20;99.90;;;;;;5038946;28;20081;-71
2023/03/09 10:35:48;;;;;;;16.67;7.78;;;4.20;99.90;;;;;;5041063;28;20029;-71
2023/03/09 10:38:16;;;;;;;14.07;7.47;;;4.30;99.90;;;;;;5038723;28;20044;-71
2023/03/09 10:40:48;;;;;;;13.80;7.20;;;4.30;99.90;;;;;;5039525;28;20033;-71
2023/03/09 10:43:36;;;;;;;14.07;7.60;;;4.40;99.90;;;;;;5039171;28;20057;-71
2023/03/09 10:46:13;;;;;;;16.40;7.53;;;4.50;99.90;;;;;;5037415;28;20029;-71
2023/03/09 10:48:39;;;;;;;15.50;7.63;;;4.50;99.90;;;;;;5037294;28;20089;-69
2023/03/09 10:51:19;;;;;;;15.77;7.30;;;4.70;99.90;;;;;;5036989;28;20056;-69
2023/03/09 10:53:46;;;;;;;13.40;7.00;;;4.70;99.90;;;;;;5040083;28;20036;-70
2023/03/09 10:56:25;;;;;;;12.00;6.07;;;4.80;99.90;;;;;;5038671;28;20045;-71
2023/03/09 10:59:08;;;;;;;11.80;6.38;;;4.90;99.90;;;;;;5040564;28;20033;-70
2023/03/09 11:01:37;;;;;;;17.42;7.90;;;4.90;99.90;;;;;;5040660;28;20025;-70
2023/03/09 11:04:22;;;;;;;14.85;7.53;;;5.00;99.90;;;;;;5039107;28;20053;-69
2023/03/09 11:06:56;;;;;;;15.77;8.07;;;5.10;99.90;;;;;;5038327;28;20758;-70
2023/03/09 11:09:33;;;;;;;15.02;7.75;;;5.10;99.90;;;;;;5038751;28;20033;-70
2023/03/09 11:12:31;;;;;;;12.68;7.32;;;5.10;99.90;;;;;;5036042;28;20437;-70
2023/03/09 11:14:57;;;;;;;14.65;7.10;;;5.10;99.90;;;;;;5037895;28;20069;-72
2023/03/09 11:17:32;;;;;;;13.20;7.43;;;5.10;99.90;;;;;;5038741;28;20026;-70
2023/03/09 11:20:12;;;;;;;13.23;7.13;;;5.10;99.90;;;;;;5035756;28;20037;-70
2023/03/09 11:22:45;;;;;;;14.65;7.53;;;5.10;99.90;;;;;;5040731;28;20034;-70
2023/03/09 11:25:32;;;;;;;14.35;6.80;;;5.20;99.90;;;;;;5038104;28;20029;-70
2023/03/09 11:28:05;;;;;;;11.57;6.47;;;5.40;99.90;;;;;;5038576;28;20106;-70
2023/03/09 11:30:31;;;;;;;15.57;7.10;;;5.40;99.90;;;;;;5039027;28;20061;-70
2023/03/09 11:32:56;;;;;;;15.23;7.63;;;5.80;99.90;;;;;;5040627;28;20720;-69
2023/03/09 11:35:23;;;;;;;15.32;7.85;;;5.80;99.90;;;;;;5040749;28;20036;-70
2023/03/09 11:37:54;;;;;;;14.60;7.38;;;5.90;99.90;;;;;;5042861;28;20077;-69
2023/03/09 11:40:24;;;;;;;14.85;6.72;;;6.00;99.90;;;;;;5037348;28;20140;-69
2023/03/09 11:43:00;;;;;;;12.13;6.40;;;6.00;99.90;;;;;;5042880;28;20033;-70
2023/03/09 11:45:29;;;;;;;12.98;6.30;;;6.20;99.90;;;;;;5039237;28;20029;-70
2023/03/09 11:48:04;;;;;;;10.52;5.88;;;6.30;99.90;;;;;;5041677;28;20031;-69
2023/03/09 11:50:38;;;;;;;;;;;6.30;99.90;;;;;;5042579;28;20068;-69
2023/03/09 11:53:19;;;;;;;12.43;5.85;;;6.40;99.90;;;;;;5042093;28;19909;-70
2023/03/09 11:55:49;;;;;;;12.68;6.30;;;6.30;99.90;;;;;;5042040;28;20085;-70
2023/03/09 11:58:21;;;;;;;9.48;4.95;;;6.30;99.90;;;;;;5043210;28;20653;-70
2023/03/09 12:00:52;;;;;;;14.60;5.97;;;6.20;99.90;;;;;;5043447;28;20029;-69
2023/03/09 12:03:19;;;;;;;11.07;5.80;;;6.20;99.90;;;;;;5041745;28;20045;-70
2023/03/09 12:06:03;;;;;;;12.23;5.75;;;6.10;99.90;;;;;;5041749;28;20021;-69
2023/03/09 12:08:36;;;;;;;11.15;6.38;;;6.10;99.90;;;;;;5042683;28;20036;-70
2023/03/09 12:11:10;;;;;;;12.32;6.63;;;5.90;99.90;;;;;;5041061;28;20042;-69
2023/03/09 12:13:40;;;;;;;14.10;6.63;;;6.00;99.90;;;;;;5043092;28;20063;-69
2023/03/09 12:16:24;;;;;;;12.25;6.85;;;5.90;99.90;;;;;;5040596;28;20029;-69
2023/03/09 12:18:59;;;;;;;12.15;6.95;;;5.80;99.90;;;;;;5041429;28;20044;-69
2023/03/09 12:21:34;;;;;;;12.57;6.22;;;6.00;99.90;;;;;;5041532;28;20180;-68
2023/03/09 12:24:17;;;;;;;12.30;5.57;;;6.00;99.90;;;;;;5043001;28;20026;-70
2023/03/09 12:26:43;;;;;;;11.23;6.40;;;6.10;99.90;;;;;;5042397;28;20053;-72
2023/03/09 12:29:22;;;;;;;14.13;7.07;;;6.10;99.90;;;;;;5042941;28;20022;-70
2023/03/09 12:32:20;;;;;;;15.88;6.75;;;6.00;99.90;;;;;;5041082;28;20021;-69
2023/03/09 12:34:47;;;;;;;10.40;5.97;;;5.90;99.90;;;;;;5040272;28;20029;-70
2023/03/09 12:37:28;;;;;;;11.93;6.45;;;5.90;99.90;;;;;;5038130;28;20021;-68
2023/03/09 12:40:15;;;;;;;13.88;6.50;;;5.80;99.90;;;;;;5038190;28;20037;-69
2023/03/09 12:42:42;;;;;;;11.10;6.35;;;5.80;99.90;;;;;;5037663;28;20053;-68
2023/03/09 12:45:16;;;;;;;11.80;6.57;;;5.80;99.90;;;;;;5041863;28;20049;-69
2023/03/09 12:47:48;;;;;;;12.85;7.22;;;5.80;99.90;;;;;;5042270;28;20105;-68